sensor_id;sensor_type;location;lat;lon;timestamp;temperature;humidity
64855;DHT22;51321;50.428;8.378;2022-09-03T00:00:48;13.70;81.70
64855;DHT22;51321;50.428;8.378;2022-09-03T00:03:36;13.70;81.40
64855;DHT22;51321;50.428;8.378;2022-09-03T00:06:22;13.70;81.90
64855;DHT22;51321;50.428;8.378;2022-09-03T00:09:08;13.60;82.40
64855;DHT22;51321;50.428;8.378;2022-09-03T00:11:54;13.70;82.40
64855;DHT22;51321;50.428;8.378;2022-09-03T00:14:43;13.80;82.00
64855;DHT22;51321;50.428;8.378;2022-09-03T00:17:28;13.70;82.80
64855;DHT22;51321;50.428;8.378;2022-09-03T00:20:14;13.70;82.10
64855;DHT22;51321;50.428;8.378;2022-09-03T00:22:57;13.60;83.20
64855;DHT22;51321;50.428;8.378;2022-09-03T00:25:43;13.40;84.00
64855;DHT22;51321;50.428;8.378;2022-09-03T00:28:27;13.50;83.50
64855;DHT22;51321;50.428;8.378;2022-09-03T00:31:15;13.50;83.60
64855;DHT22;51321;50.428;8.378;2022-09-03T00:34:01;13.50;83.60
64855;DHT22;51321;50.428;8.378;2022-09-03T00:36:44;13.60;83.40
64855;DHT22;51321;50.428;8.378;2022-09-03T00:39:26;13.40;83.90
64855;DHT22;51321;50.428;8.378;2022-09-03T00:42:20;13.40;84.20
64855;DHT22;51321;50.428;8.378;2022-09-03T00:45:21;13.40;84.70
64855;DHT22;51321;50.428;8.378;2022-09-03T00:48:15;13.30;84.70
64855;DHT22;51321;50.428;8.378;2022-09-03T00:51:11;13.40;84.50
64855;DHT22;51321;50.428;8.378;2022-09-03T00:54:01;13.20;85.30
64855;DHT22;51321;50.428;8.378;2022-09-03T00:56:49;13.40;84.90
64855;DHT22;51321;50.428;8.378;2022-09-03T00:59:36;13.30;85.50
64855;DHT22;51321;50.428;8.378;2022-09-03T01:02:26;13.20;85.60
64855;DHT22;51321;50.428;8.378;2022-09-03T01:05:20;13.20;85.60
64855;DHT22;51321;50.428;8.378;2022-09-03T01:08:13;13.30;85.70
64855;DHT22;51321;50.428;8.378;2022-09-03T01:11:10;13.30;85.60
64855;DHT22;51321;50.428;8.378;2022-09-03T01:14:00;13.30;85.90
64855;DHT22;51321;50.428;8.378;2022-09-03T01:16:50;13.20;86.10
64855;DHT22;51321;50.428;8.378;2022-09-03T01:19:45;13.00;86.90
64855;DHT22;51321;50.428;8.378;2022-09-03T01:22:59;12.90;87.40
64855;DHT22;51321;50.428;8.378;2022-09-03T01:25:52;13.00;87.30
64855;DHT22;51321;50.428;8.378;2022-09-03T01:28:47;12.90;87.80
64855;DHT22;51321;50.428;8.378;2022-09-03T01:31:38;13.00;87.40
64855;DHT22;51321;50.428;8.378;2022-09-03T01:34:31;12.90;88.30
64855;DHT22;51321;50.428;8.378;2022-09-03T01:37:23;12.80;88.50
64855;DHT22;51321;50.428;8.378;2022-09-03T01:40:16;12.90;88.00
64855;DHT22;51321;50.428;8.378;2022-09-03T01:43:22;12.90;88.50
64855;DHT22;51321;50.428;8.378;2022-09-03T01:46:17;12.90;88.60
64855;DHT22;51321;50.428;8.378;2022-09-03T01:49:03;12.70;89.50
64855;DHT22;51321;50.428;8.378;2022-09-03T01:51:45;12.80;89.30
64855;DHT22;51321;50.428;8.378;2022-09-03T01:54:43;12.90;88.90
64855;DHT22;51321;50.428;8.378;2022-09-03T01:57:42;12.90;88.70
64855;DHT22;51321;50.428;8.378;2022-09-03T02:00:26;12.70;89.60
64855;DHT22;51321;50.428;8.378;2022-09-03T02:03:10;12.70;90.00
64855;DHT22;51321;50.428;8.378;2022-09-03T02:05:51;12.70;89.80
64855;DHT22;51321;50.428;8.378;2022-09-03T02:08:32;12.70;90.00
64855;DHT22;51321;50.428;8.378;2022-09-03T02:11:13;12.70;90.10
64855;DHT22;51321;50.428;8.378;2022-09-03T02:13:55;12.60;90.30
64855;DHT22;51321;50.428;8.378;2022-09-03T02:16:38;12.70;90.10
64855;DHT22;51321;50.428;8.378;2022-09-03T02:19:19;12.80;90.10
64855;DHT22;51321;50.428;8.378;2022-09-03T02:22:03;12.60;90.30
64855;DHT22;51321;50.428;8.378;2022-09-03T02:24:44;12.70;90.20
64855;DHT22;51321;50.428;8.378;2022-09-03T02:27:25;12.90;90.10
64855;DHT22;51321;50.428;8.378;2022-09-03T02:30:07;12.60;90.40
64855;DHT22;51321;50.428;8.378;2022-09-03T02:32:47;12.70;90.30
64855;DHT22;51321;50.428;8.378;2022-09-03T02:35:29;12.40;90.80
64855;DHT22;51321;50.428;8.378;2022-09-03T02:38:11;12.50;90.80
64855;DHT22;51321;50.428;8.378;2022-09-03T02:40:52;12.40;90.90
64855;DHT22;51321;50.428;8.378;2022-09-03T02:43:37;12.60;90.60
64855;DHT22;51321;50.428;8.378;2022-09-03T02:46:21;12.40;91.00
64855;DHT22;51321;50.428;8.378;2022-09-03T02:49:03;12.50;91.00
64855;DHT22;51321;50.428;8.378;2022-09-03T02:51:45;12.40;91.30
64855;DHT22;51321;50.428;8.378;2022-09-03T02:54:26;12.20;91.50
64855;DHT22;51321;50.428;8.378;2022-09-03T02:57:09;12.20;91.80
64855;DHT22;51321;50.428;8.378;2022-09-03T02:59:49;12.30;91.60
64855;DHT22;51321;50.428;8.378;2022-09-03T03:02:30;12.30;91.80
64855;DHT22;51321;50.428;8.378;2022-09-03T03:05:17;12.50;91.40
64855;DHT22;51321;50.428;8.378;2022-09-03T03:08:01;12.60;91.10
64855;DHT22;51321;50.428;8.378;2022-09-03T03:10:42;12.70;90.70
64855;DHT22;51321;50.428;8.378;2022-09-03T03:13:23;12.70;90.80
64855;DHT22;51321;50.428;8.378;2022-09-03T03:16:05;12.60;91.00
64855;DHT22;51321;50.428;8.378;2022-09-03T03:18:45;12.50;91.20
64855;DHT22;51321;50.428;8.378;2022-09-03T03:21:26;12.50;91.20
64855;DHT22;51321;50.428;8.378;2022-09-03T03:24:08;12.20;91.80
64855;DHT22;51321;50.428;8.378;2022-09-03T03:26:49;12.10;92.20
64855;DHT22;51321;50.428;8.378;2022-09-03T03:29:29;12.20;92.00
64855;DHT22;51321;50.428;8.378;2022-09-03T03:32:10;12.30;91.80
64855;DHT22;51321;50.428;8.378;2022-09-03T03:34:50;12.30;91.90
64855;DHT22;51321;50.428;8.378;2022-09-03T03:37:31;12.40;91.70
64855;DHT22;51321;50.428;8.378;2022-09-03T03:40:15;12.30;91.80
64855;DHT22;51321;50.428;8.378;2022-09-03T03:42:56;12.20;91.90
64855;DHT22;51321;50.428;8.378;2022-09-03T03:45:37;12.20;92.20
64855;DHT22;51321;50.428;8.378;2022-09-03T03:48:17;12.00;92.60
64855;DHT22;51321;50.428;8.378;2022-09-03T03:50:59;11.90;92.90
64855;DHT22;51321;50.428;8.378;2022-09-03T03:53:42;11.90;93.00
64855;DHT22;51321;50.428;8.378;2022-09-03T03:56:25;12.00;92.90
64855;DHT22;51321;50.428;8.378;2022-09-03T03:59:06;12.10;92.50
64855;DHT22;51321;50.428;8.378;2022-09-03T04:01:46;12.00;92.80
64855;DHT22;51321;50.428;8.378;2022-09-03T04:04:29;11.90;92.80
64855;DHT22;51321;50.428;8.378;2022-09-03T04:07:09;11.80;93.20
64855;DHT22;51321;50.428;8.378;2022-09-03T04:09:50;11.90;93.20
64855;DHT22;51321;50.428;8.378;2022-09-03T04:12:31;11.90;93.10
64855;DHT22;51321;50.428;8.378;2022-09-03T04:15:12;11.90;93.30
64855;DHT22;51321;50.428;8.378;2022-09-03T04:17:53;11.80;93.30
64855;DHT22;51321;50.428;8.378;2022-09-03T04:20:35;11.70;93.50
64855;DHT22;51321;50.428;8.378;2022-09-03T04:23:16;11.80;93.50
64855;DHT22;51321;50.428;8.378;2022-09-03T04:25:56;11.80;93.40
64855;DHT22;51321;50.428;8.378;2022-09-03T04:28:38;11.90;93.10
64855;DHT22;51321;50.428;8.378;2022-09-03T04:31:20;12.00;93.20
64855;DHT22;51321;50.428;8.378;2022-09-03T04:34:00;11.90;93.30
64855;DHT22;51321;50.428;8.378;2022-09-03T04:36:40;11.90;93.40
64855;DHT22;51321;50.428;8.378;2022-09-03T04:39:21;12.00;93.10
64855;DHT22;51321;50.428;8.378;2022-09-03T04:42:01;11.90;93.30
64855;DHT22;51321;50.428;8.378;2022-09-03T04:44:43;11.90;93.40
64855;DHT22;51321;50.428;8.378;2022-09-03T04:47:24;11.80;93.60
64855;DHT22;51321;50.428;8.378;2022-09-03T04:50:07;11.80;93.70
64855;DHT22;51321;50.428;8.378;2022-09-03T04:52:47;11.90;93.70
64855;DHT22;51321;50.428;8.378;2022-09-03T04:55:32;12.10;93.40
64855;DHT22;51321;50.428;8.378;2022-09-03T04:58:12;12.20;93.10
64855;DHT22;51321;50.428;8.378;2022-09-03T05:00:54;12.30;92.90
64855;DHT22;51321;50.428;8.378;2022-09-03T05:03:35;12.20;93.10
64855;DHT22;51321;50.428;8.378;2022-09-03T05:06:16;12.20;93.10
64855;DHT22;51321;50.428;8.378;2022-09-03T05:08:57;12.20;93.30
64855;DHT22;51321;50.428;8.378;2022-09-03T05:11:38;12.10;93.60
64855;DHT22;51321;50.428;8.378;2022-09-03T05:14:18;12.20;93.40
64855;DHT22;51321;50.428;8.378;2022-09-03T05:17:00;12.20;93.30
64855;DHT22;51321;50.428;8.378;2022-09-03T05:19:41;12.20;93.60
64855;DHT22;51321;50.428;8.378;2022-09-03T05:22:21;12.20;93.70
64855;DHT22;51321;50.428;8.378;2022-09-03T05:25:02;12.40;93.30
64855;DHT22;51321;50.428;8.378;2022-09-03T05:27:43;12.50;93.20
64855;DHT22;51321;50.428;8.378;2022-09-03T05:30:24;12.70;93.10
64855;DHT22;51321;50.428;8.378;2022-09-03T05:33:06;12.80;93.20
64855;DHT22;51321;50.428;8.378;2022-09-03T05:35:47;12.80;93.20
64855;DHT22;51321;50.428;8.378;2022-09-03T05:38:27;12.90;93.10
64855;DHT22;51321;50.428;8.378;2022-09-03T05:41:09;12.80;93.40
64855;DHT22;51321;50.428;8.378;2022-09-03T05:43:51;13.00;93.20
64855;DHT22;51321;50.428;8.378;2022-09-03T05:46:33;13.00;93.10
64855;DHT22;51321;50.428;8.378;2022-09-03T05:49:17;13.00;93.40
64855;DHT22;51321;50.428;8.378;2022-09-03T05:51:58;13.00;93.60
64855;DHT22;51321;50.428;8.378;2022-09-03T05:54:38;13.10;93.50
64855;DHT22;51321;50.428;8.378;2022-09-03T05:57:19;13.00;93.50
64855;DHT22;51321;50.428;8.378;2022-09-03T05:59:59;13.00;93.50
64855;DHT22;51321;50.428;8.378;2022-09-03T06:02:40;13.20;93.60
64855;DHT22;51321;50.428;8.378;2022-09-03T06:05:22;13.40;93.00
64855;DHT22;51321;50.428;8.378;2022-09-03T06:08:03;13.50;92.50
64855;DHT22;51321;50.428;8.378;2022-09-03T06:10:43;13.70;91.80
64855;DHT22;51321;50.428;8.378;2022-09-03T06:13:24;13.90;92.00
64855;DHT22;51321;50.428;8.378;2022-09-03T06:16:06;14.00;92.00
64855;DHT22;51321;50.428;8.378;2022-09-03T06:18:47;14.00;92.00
64855;DHT22;51321;50.428;8.378;2022-09-03T06:21:28;14.10;91.40
64855;DHT22;51321;50.428;8.378;2022-09-03T06:24:10;14.20;91.60
64855;DHT22;51321;50.428;8.378;2022-09-03T06:26:51;14.30;91.30
64855;DHT22;51321;50.428;8.378;2022-09-03T06:29:31;14.40;91.20
64855;DHT22;51321;50.428;8.378;2022-09-03T06:32:13;14.50;90.60
64855;DHT22;51321;50.428;8.378;2022-09-03T06:34:54;14.50;90.70
64855;DHT22;51321;50.428;8.378;2022-09-03T06:37:39;14.60;90.60
64855;DHT22;51321;50.428;8.378;2022-09-03T06:40:20;14.70;90.30
64855;DHT22;51321;50.428;8.378;2022-09-03T06:43:01;14.70;90.40
64855;DHT22;51321;50.428;8.378;2022-09-03T06:45:42;14.80;90.50
64855;DHT22;51321;50.428;8.378;2022-09-03T06:48:23;14.90;90.90
64855;DHT22;51321;50.428;8.378;2022-09-03T06:51:05;14.90;91.30
64855;DHT22;51321;50.428;8.378;2022-09-03T06:53:48;14.90;91.40
64855;DHT22;51321;50.428;8.378;2022-09-03T06:56:29;14.90;91.60
64855;DHT22;51321;50.428;8.378;2022-09-03T06:59:11;14.90;91.20
64855;DHT22;51321;50.428;8.378;2022-09-03T07:01:53;15.00;91.80
64855;DHT22;51321;50.428;8.378;2022-09-03T07:04:33;15.10;91.90
64855;DHT22;51321;50.428;8.378;2022-09-03T07:07:14;15.10;90.90
64855;DHT22;51321;50.428;8.378;2022-09-03T07:09:56;15.30;91.30
64855;DHT22;51321;50.428;8.378;2022-09-03T07:12:36;15.30;90.80
64855;DHT22;51321;50.428;8.378;2022-09-03T07:15:17;15.40;90.80
64855;DHT22;51321;50.428;8.378;2022-09-03T07:17:58;15.40;91.00
64855;DHT22;51321;50.428;8.378;2022-09-03T07:20:39;15.40;91.10
64855;DHT22;51321;50.428;8.378;2022-09-03T07:23:19;15.40;90.90
64855;DHT22;51321;50.428;8.378;2022-09-03T07:26:03;15.50;90.90
64855;DHT22;51321;50.428;8.378;2022-09-03T07:28:44;15.60;91.00
64855;DHT22;51321;50.428;8.378;2022-09-03T07:31:27;15.70;90.90
64855;DHT22;51321;50.428;8.378;2022-09-03T07:34:09;15.70;91.10
64855;DHT22;51321;50.428;8.378;2022-09-03T07:36:50;15.80;90.90
64855;DHT22;51321;50.428;8.378;2022-09-03T07:39:31;15.70;93.00
64855;DHT22;51321;50.428;8.378;2022-09-03T07:42:14;15.80;95.20
64855;DHT22;51321;50.428;8.378;2022-09-03T07:44:54;15.70;95.10
64855;DHT22;51321;50.428;8.378;2022-09-03T07:47:36;15.70;95.90
64855;DHT22;51321;50.428;8.378;2022-09-03T07:50:17;15.70;96.10
64855;DHT22;51321;50.428;8.378;2022-09-03T07:52:58;15.70;97.00
64855;DHT22;51321;50.428;8.378;2022-09-03T07:55:38;15.80;96.30
64855;DHT22;51321;50.428;8.378;2022-09-03T07:58:20;15.80;97.10
64855;DHT22;51321;50.428;8.378;2022-09-03T08:01:04;15.80;97.90
64855;DHT22;51321;50.428;8.378;2022-09-03T08:03:47;15.80;98.80
64855;DHT22;51321;50.428;8.378;2022-09-03T08:06:29;15.70;98.70
64855;DHT22;51321;50.428;8.378;2022-09-03T08:09:11;15.80;99.00
64855;DHT22;51321;50.428;8.378;2022-09-03T08:11:52;16.00;99.60
64855;DHT22;51321;50.428;8.378;2022-09-03T08:14:34;16.00;99.20
64855;DHT22;51321;50.428;8.378;2022-09-03T08:17:14;16.10;99.60
64855;DHT22;51321;50.428;8.378;2022-09-03T08:19:55;16.20;98.50
64855;DHT22;51321;50.428;8.378;2022-09-03T08:22:36;16.30;98.50
64855;DHT22;51321;50.428;8.378;2022-09-03T08:25:17;16.30;98.60
64855;DHT22;51321;50.428;8.378;2022-09-03T08:27:58;16.30;97.10
64855;DHT22;51321;50.428;8.378;2022-09-03T08:30:40;16.30;97.00
64855;DHT22;51321;50.428;8.378;2022-09-03T08:33:21;16.30;97.60
64855;DHT22;51321;50.428;8.378;2022-09-03T08:36:16;16.40;96.90
64855;DHT22;51321;50.428;8.378;2022-09-03T08:38:58;16.40;96.50
64855;DHT22;51321;50.428;8.378;2022-09-03T08:44:54;16.60;93.90
64855;DHT22;51321;50.428;8.378;2022-09-03T08:47:40;16.80;94.30
64855;DHT22;51321;50.428;8.378;2022-09-03T08:50:24;16.80;93.10
64855;DHT22;51321;50.428;8.378;2022-09-03T08:53:10;16.90;93.70
64855;DHT22;51321;50.428;8.378;2022-09-03T08:55:55;17.00;94.40
64855;DHT22;51321;50.428;8.378;2022-09-03T08:58:38;17.00;94.00
64855;DHT22;51321;50.428;8.378;2022-09-03T09:01:30;17.10;93.20
64855;DHT22;51321;50.428;8.378;2022-09-03T09:04:31;17.30;93.20
64855;DHT22;51321;50.428;8.378;2022-09-03T09:07:19;17.50;91.60
64855;DHT22;51321;50.428;8.378;2022-09-03T09:10:07;17.80;91.30
64855;DHT22;51321;50.428;8.378;2022-09-03T09:12:57;18.00;90.90
64855;DHT22;51321;50.428;8.378;2022-09-03T09:15:50;18.20;91.30
64855;DHT22;51321;50.428;8.378;2022-09-03T09:18:42;18.70;90.90
64855;DHT22;51321;50.428;8.378;2022-09-03T09:21:29;18.90;89.10
64855;DHT22;51321;50.428;8.378;2022-09-03T09:24:17;19.10;89.50
64855;DHT22;51321;50.428;8.378;2022-09-03T09:27:03;19.30;88.20
64855;DHT22;51321;50.428;8.378;2022-09-03T09:29:47;19.50;87.60
64855;DHT22;51321;50.428;8.378;2022-09-03T09:32:27;19.70;88.10
64855;DHT22;51321;50.428;8.378;2022-09-03T09:35:10;19.80;84.90
64855;DHT22;51321;50.428;8.378;2022-09-03T09:37:53;19.70;85.70
64855;DHT22;51321;50.428;8.378;2022-09-03T09:40:35;19.70;85.60
64855;DHT22;51321;50.428;8.378;2022-09-03T09:43:17;19.70;86.10
64855;DHT22;51321;50.428;8.378;2022-09-03T09:46:05;19.70;85.60
64855;DHT22;51321;50.428;8.378;2022-09-03T09:48:49;19.90;84.70
64855;DHT22;51321;50.428;8.378;2022-09-03T09:51:31;20.10;84.70
64855;DHT22;51321;50.428;8.378;2022-09-03T09:54:15;20.30;85.10
64855;DHT22;51321;50.428;8.378;2022-09-03T09:57:00;20.60;83.60
64855;DHT22;51321;50.428;8.378;2022-09-03T09:59:41;20.60;83.10
64855;DHT22;51321;50.428;8.378;2022-09-03T10:02:24;20.50;83.30
64855;DHT22;51321;50.428;8.378;2022-09-03T10:05:14;20.30;84.30
64855;DHT22;51321;50.428;8.378;2022-09-03T10:07:56;20.30;84.90
64855;DHT22;51321;50.428;8.378;2022-09-03T10:10:43;20.20;85.60
64855;DHT22;51321;50.428;8.378;2022-09-03T10:13:34;20.20;87.50
64855;DHT22;51321;50.428;8.378;2022-09-03T10:16:22;19.90;87.00
64855;DHT22;51321;50.428;8.378;2022-09-03T10:19:10;19.70;88.80
64855;DHT22;51321;50.428;8.378;2022-09-03T10:22:01;19.60;89.00
64855;DHT22;51321;50.428;8.378;2022-09-03T10:24:51;19.50;89.10
64855;DHT22;51321;50.428;8.378;2022-09-03T11:29:54;21.80;85.00
64855;DHT22;51321;50.428;8.378;2022-09-03T11:32:23;21.90;85.10
64855;DHT22;51321;50.428;8.378;2022-09-03T11:34:48;21.80;84.90
64855;DHT22;51321;50.428;8.378;2022-09-03T11:37:19;21.60;86.50
64855;DHT22;51321;50.428;8.378;2022-09-03T11:39:41;21.60;85.90
64855;DHT22;51321;50.428;8.378;2022-09-03T11:42:04;21.70;86.20
64855;DHT22;51321;50.428;8.378;2022-09-03T11:44:35;21.70;85.90
64855;DHT22;51321;50.428;8.378;2022-09-03T11:47:00;21.80;85.40
64855;DHT22;51321;50.428;8.378;2022-09-03T11:49:28;21.80;85.30
64855;DHT22;51321;50.428;8.378;2022-09-03T11:51:57;21.90;85.60
64855;DHT22;51321;50.428;8.378;2022-09-03T11:54:25;22.00;85.40
64855;DHT22;51321;50.428;8.378;2022-09-03T11:56:48;22.10;85.40
64855;DHT22;51321;50.428;8.378;2022-09-03T11:59:17;22.10;85.10
64855;DHT22;51321;50.428;8.378;2022-09-03T12:01:43;22.20;84.50
64855;DHT22;51321;50.428;8.378;2022-09-03T12:04:14;22.00;84.90
64855;DHT22;51321;50.428;8.378;2022-09-03T12:06:47;22.00;84.90
64855;DHT22;51321;50.428;8.378;2022-09-03T12:09:31;21.70;85.30
64855;DHT22;51321;50.428;8.378;2022-09-03T12:12:07;21.50;85.70
64855;DHT22;51321;50.428;8.378;2022-09-03T12:14:39;21.60;86.40
64855;DHT22;51321;50.428;8.378;2022-09-03T12:17:13;21.50;86.00
64855;DHT22;51321;50.428;8.378;2022-09-03T12:19:49;21.50;86.50
64855;DHT22;51321;50.428;8.378;2022-09-03T12:22:13;21.50;86.70
64855;DHT22;51321;50.428;8.378;2022-09-03T12:24:38;21.50;86.00
64855;DHT22;51321;50.428;8.378;2022-09-03T12:27:08;21.60;86.00
64855;DHT22;51321;50.428;8.378;2022-09-03T12:29:31;21.60;86.10
64855;DHT22;51321;50.428;8.378;2022-09-03T12:31:54;21.60;86.40
64855;DHT22;51321;50.428;8.378;2022-09-03T12:34:18;21.70;85.80
64855;DHT22;51321;50.428;8.378;2022-09-03T12:36:45;21.80;85.40
64855;DHT22;51321;50.428;8.378;2022-09-03T12:39:08;21.90;85.00
64855;DHT22;51321;50.428;8.378;2022-09-03T12:41:33;22.20;83.80
64855;DHT22;51321;50.428;8.378;2022-09-03T12:43:58;22.30;84.20
64855;DHT22;51321;50.428;8.378;2022-09-03T12:46:25;22.40;83.40
64855;DHT22;51321;50.428;8.378;2022-09-03T12:48:56;22.60;83.00
64855;DHT22;51321;50.428;8.378;2022-09-03T12:51:24;22.40;83.30
64855;DHT22;51321;50.428;8.378;2022-09-03T12:53:50;22.20;84.10
64855;DHT22;51321;50.428;8.378;2022-09-03T12:56:15;22.10;83.50
64855;DHT22;51321;50.428;8.378;2022-09-03T12:58:42;22.20;84.50
64855;DHT22;51321;50.428;8.378;2022-09-03T13:01:13;22.70;83.10
64855;DHT22;51321;50.428;8.378;2022-09-03T13:03:45;22.90;82.70
64855;DHT22;51321;50.428;8.378;2022-09-03T13:06:10;23.30;81.60
64855;DHT22;51321;50.428;8.378;2022-09-03T13:08:55;23.30;81.10
64855;DHT22;51321;50.428;8.378;2022-09-03T13:11:23;23.50;81.30
64855;DHT22;51321;50.428;8.378;2022-09-03T13:14:00;23.70;79.90
64855;DHT22;51321;50.428;8.378;2022-09-03T13:19:30;24.10;80.20
64855;DHT22;51321;50.428;8.378;2022-09-03T13:22:01;23.90;80.10
64855;DHT22;51321;50.428;8.378;2022-09-03T13:24:53;24.10;79.90
64855;DHT22;51321;50.428;8.378;2022-09-03T13:27:21;24.30;78.40
64855;DHT22;51321;50.428;8.378;2022-09-03T13:30:00;24.50;78.40
64855;DHT22;51321;50.428;8.378;2022-09-03T13:32:35;24.60;77.30
64855;DHT22;51321;50.428;8.378;2022-09-03T13:35:07;24.70;77.00
64855;DHT22;51321;50.428;8.378;2022-09-03T13:37:36;24.60;77.10
64855;DHT22;51321;50.428;8.378;2022-09-03T13:40:10;24.60;77.50
64855;DHT22;51321;50.428;8.378;2022-09-03T13:42:42;24.20;77.90
64855;DHT22;51321;50.428;8.378;2022-09-03T13:45:20;24.10;78.50
64855;DHT22;51321;50.428;8.378;2022-09-03T13:47:58;23.70;79.00
64855;DHT22;51321;50.428;8.378;2022-09-03T13:50:44;23.30;79.50
64855;DHT22;51321;50.428;8.378;2022-09-03T13:53:16;22.90;81.00
64855;DHT22;51321;50.428;8.378;2022-09-03T13:55:45;23.00;81.50
64855;DHT22;51321;50.428;8.378;2022-09-03T13:58:18;22.90;81.30
64855;DHT22;51321;50.428;8.378;2022-09-03T14:00:45;22.90;81.80
64855;DHT22;51321;50.428;8.378;2022-09-03T14:03:15;22.80;81.90
64855;DHT22;51321;50.428;8.378;2022-09-03T14:05:49;22.80;82.20
64855;DHT22;51321;50.428;8.378;2022-09-03T14:08:23;22.70;82.00
64855;DHT22;51321;50.428;8.378;2022-09-03T14:10:58;22.60;82.50
64855;DHT22;51321;50.428;8.378;2022-09-03T14:13:30;22.50;83.00
64855;DHT22;51321;50.428;8.378;2022-09-03T14:18:42;22.40;83.70
64855;DHT22;51321;50.428;8.378;2022-09-03T14:21:12;22.20;83.90
64855;DHT22;51321;50.428;8.378;2022-09-03T14:24:00;22.10;84.10
64855;DHT22;51321;50.428;8.378;2022-09-03T14:26:36;22.00;84.30
64855;DHT22;51321;50.428;8.378;2022-09-03T14:29:07;22.00;84.90
64855;DHT22;51321;50.428;8.378;2022-09-03T14:32:00;21.90;85.30
64855;DHT22;51321;50.428;8.378;2022-09-03T14:34:39;22.00;85.30
64855;DHT22;51321;50.428;8.378;2022-09-03T14:37:23;22.00;85.20
64855;DHT22;51321;50.428;8.378;2022-09-03T14:40:12;22.20;85.00
64855;DHT22;51321;50.428;8.378;2022-09-03T14:42:50;22.20;85.00
64855;DHT22;51321;50.428;8.378;2022-09-03T14:48:31;22.70;83.30
64855;DHT22;51321;50.428;8.378;2022-09-03T14:51:13;22.90;83.00
64855;DHT22;51321;50.428;8.378;2022-09-03T14:53:50;23.20;82.20
64855;DHT22;51321;50.428;8.378;2022-09-03T14:56:29;23.40;81.40
64855;DHT22;51321;50.428;8.378;2022-09-03T14:59:17;23.30;81.60
64855;DHT22;51321;50.428;8.378;2022-09-03T15:01:45;23.00;82.10
64855;DHT22;51321;50.428;8.378;2022-09-03T15:04:50;23.00;82.50
64855;DHT22;51321;50.428;8.378;2022-09-03T15:07:31;22.90;82.60
64855;DHT22;51321;50.428;8.378;2022-09-03T15:10:04;22.80;83.10
64855;DHT22;51321;50.428;8.378;2022-09-03T15:12:34;22.90;82.80
64855;DHT22;51321;50.428;8.378;2022-09-03T15:15:12;22.90;83.10
64855;DHT22;51321;50.428;8.378;2022-09-03T15:17:56;22.90;82.80
64855;DHT22;51321;50.428;8.378;2022-09-03T15:20:32;22.90;82.20
64855;DHT22;51321;50.428;8.378;2022-09-03T15:23:16;22.70;82.50
64855;DHT22;51321;50.428;8.378;2022-09-03T15:26:09;22.70;82.60
64855;DHT22;51321;50.428;8.378;2022-09-03T15:28:44;22.60;82.90
64855;DHT22;51321;50.428;8.378;2022-09-03T15:31:14;22.60;83.00
64855;DHT22;51321;50.428;8.378;2022-09-03T15:33:44;22.80;82.70
64855;DHT22;51321;50.428;8.378;2022-09-03T15:36:14;22.90;82.50
64855;DHT22;51321;50.428;8.378;2022-09-03T15:38:45;22.90;81.90
64855;DHT22;51321;50.428;8.378;2022-09-03T15:41:16;23.00;81.80
64855;DHT22;51321;50.428;8.378;2022-09-03T15:43:48;23.00;81.90
64855;DHT22;51321;50.428;8.378;2022-09-03T15:46:36;23.00;81.50
64855;DHT22;51321;50.428;8.378;2022-09-03T15:49:02;23.00;81.70
64855;DHT22;51321;50.428;8.378;2022-09-03T15:51:31;22.90;81.90
64855;DHT22;51321;50.428;8.378;2022-09-03T15:53:59;22.80;82.40
64855;DHT22;51321;50.428;8.378;2022-09-03T15:56:27;22.80;82.30
64855;DHT22;51321;50.428;8.378;2022-09-03T15:58:54;22.80;81.90
64855;DHT22;51321;50.428;8.378;2022-09-03T16:01:26;22.80;82.70
64855;DHT22;51321;50.428;8.378;2022-09-03T16:04:00;22.80;82.30
64855;DHT22;51321;50.428;8.378;2022-09-03T16:06:35;22.80;82.30
64855;DHT22;51321;50.428;8.378;2022-09-03T16:09:04;22.70;82.30
64855;DHT22;51321;50.428;8.378;2022-09-03T16:11:36;22.60;82.70
64855;DHT22;51321;50.428;8.378;2022-09-03T16:14:05;22.60;82.80
64855;DHT22;51321;50.428;8.378;2022-09-03T16:16:44;22.70;82.70
64855;DHT22;51321;50.428;8.378;2022-09-03T16:19:12;22.60;82.80
64855;DHT22;51321;50.428;8.378;2022-09-03T16:21:42;22.60;82.50
64855;DHT22;51321;50.428;8.378;2022-09-03T16:24:14;22.50;82.60
64855;DHT22;51321;50.428;8.378;2022-09-03T16:26:46;22.40;82.80
64855;DHT22;51321;50.428;8.378;2022-09-03T16:29:12;22.30;83.00
64855;DHT22;51321;50.428;8.378;2022-09-03T16:34:52;22.10;84.20
64855;DHT22;51321;50.428;8.378;2022-09-03T16:37:22;22.00;84.30
64855;DHT22;51321;50.428;8.378;2022-09-03T16:39:54;21.90;84.40
64855;DHT22;51321;50.428;8.378;2022-09-03T16:42:24;21.80;84.80
64855;DHT22;51321;50.428;8.378;2022-09-03T16:44:57;21.80;84.80
64855;DHT22;51321;50.428;8.378;2022-09-03T16:47:31;21.80;85.00
64855;DHT22;51321;50.428;8.378;2022-09-03T16:50:06;21.70;85.20
64855;DHT22;51321;50.428;8.378;2022-09-03T16:52:39;21.60;85.70
64855;DHT22;51321;50.428;8.378;2022-09-03T16:55:12;21.60;85.90
64855;DHT22;51321;50.428;8.378;2022-09-03T16:57:51;21.50;86.60
64855;DHT22;51321;50.428;8.378;2022-09-03T17:00:19;21.50;86.40
64855;DHT22;51321;50.428;8.378;2022-09-03T17:03:03;21.50;86.40
64855;DHT22;51321;50.428;8.378;2022-09-03T17:05:57;21.40;86.60
64855;DHT22;51321;50.428;8.378;2022-09-03T17:08:45;21.40;87.10
64855;DHT22;51321;50.428;8.378;2022-09-03T17:11:24;21.30;88.50
64855;DHT22;51321;50.428;8.378;2022-09-03T17:14:10;21.30;87.90
64855;DHT22;51321;50.428;8.378;2022-09-03T17:16:45;21.40;87.10
64855;DHT22;51321;50.428;8.378;2022-09-03T17:19:21;21.30;87.40
64855;DHT22;51321;50.428;8.378;2022-09-03T17:21:57;21.20;88.00
64855;DHT22;51321;50.428;8.378;2022-09-03T17:24:41;21.20;88.20
64855;DHT22;51321;50.428;8.378;2022-09-03T17:27:45;21.10;88.10
64855;DHT22;51321;50.428;8.378;2022-09-03T17:30:20;21.20;88.10
64855;DHT22;51321;50.428;8.378;2022-09-03T17:33:10;21.10;88.10
64855;DHT22;51321;50.428;8.378;2022-09-03T17:35:56;21.10;88.40
64855;DHT22;51321;50.428;8.378;2022-09-03T17:38:36;21.10;88.90
64855;DHT22;51321;50.428;8.378;2022-09-03T17:41:11;21.00;89.70
64855;DHT22;51321;50.428;8.378;2022-09-03T17:43:42;20.90;90.00
64855;DHT22;51321;50.428;8.378;2022-09-03T17:46:13;20.90;90.00
64855;DHT22;51321;50.428;8.378;2022-09-03T17:48:48;20.80;90.10
64855;DHT22;51321;50.428;8.378;2022-09-03T17:51:16;20.80;90.20
64855;DHT22;51321;50.428;8.378;2022-09-03T17:53:45;20.80;90.10
64855;DHT22;51321;50.428;8.378;2022-09-03T17:56:11;20.80;90.40
64855;DHT22;51321;50.428;8.378;2022-09-03T17:58:43;20.70;90.20
64855;DHT22;51321;50.428;8.378;2022-09-03T18:01:17;20.70;90.20
64855;DHT22;51321;50.428;8.378;2022-09-03T18:03:46;20.70;90.10
64855;DHT22;51321;50.428;8.378;2022-09-03T18:06:20;20.70;90.10